Time;durP1;ratioP1;P1;durP2;ratioP2;P2;SDS_P1;SDS_P2;PMS_P1;PMS_P2;Temp;Humidity;BMP_temperature;BMP_pressure;BME280_temperature;BME280_humidity;BME280_pressure;Samples;Min_cycle;Max_cycle;Signal;HPM_P1;HPM_P2
2023/08/13 00:00:06;;;;;;;5.40;2.60;;;17.80;99.90;;;;;;5034889;28;20273;-90
2023/08/13 00:02:33;;;;;;;8.10;2.75;;;17.90;99.90;;;;;;5034778;28;20174;-89
2023/08/13 00:04:58;;;;;;;9.75;2.65;;;17.80;99.90;;;;;;5017431;28;20174;-91
2023/08/13 00:07:24;;;;;;;6.05;2.97;;;17.90;99.90;;;;;;5017415;28;20190;-91
2023/08/13 00:09:50;;;;;;;15.73;2.90;;;17.80;99.90;;;;;;5017700;28;20183;-91
2023/08/13 00:12:16;;;;;;;3.78;2.55;;;17.80;99.90;;;;;;5017494;28;20186;-90
2023/08/13 00:14:41;;;;;;;3.42;2.83;;;17.60;99.90;;;;;;5017367;28;20166;-90
2023/08/13 00:17:08;;;;;;;7.60;2.80;;;17.60;99.90;;;;;;5017141;28;20209;-89
2023/08/13 00:19:33;;;;;;;6.15;2.25;;;17.50;99.90;;;;;;5017184;28;20181;-90
2023/08/13 00:24:35;;;;;;;3.92;2.53;;;17.50;99.90;;;;;;5076972;23;20597;-91
2023/08/13 00:27:01;;;;;;;6.20;2.22;;;17.40;99.90;;;;;;4943612;29;20271;-91
2023/08/13 00:29:27;;;;;;;3.25;2.20;;;17.50;99.90;;;;;;4943409;29;20655;-91
2023/08/13 00:31:55;;;;;;;4.75;2.20;;;17.50;99.90;;;;;;4943267;29;20224;-91
2023/08/13 00:34:22;;;;;;;4.05;2.03;;;17.50;99.90;;;;;;4943553;29;20530;-91
2023/08/13 00:36:48;;;;;;;7.80;2.30;;;17.40;99.90;;;;;;4943380;29;20176;-90
2023/08/13 00:39:14;;;;;;;7.03;2.20;;;17.50;99.90;;;;;;4960182;29;20185;-91
2023/08/13 00:41:40;;;;;;;2.75;2.17;;;17.40;99.90;;;;;;4943492;29;20212;-91
2023/08/13 00:44:09;;;;;;;6.45;2.58;;;17.40;99.90;;;;;;4943106;29;20189;-91
2023/08/13 00:46:36;;;;;;;6.32;2.20;;;17.40;99.90;;;;;;4943230;29;20186;-91
2023/08/13 00:49:02;;;;;;;4.60;2.13;;;17.30;99.90;;;;;;4960069;29;20173;-91
2023/08/13 00:51:29;;;;;;;3.35;2.30;;;17.20;99.90;;;;;;4942889;29;20188;-91
2023/08/13 00:53:55;;;;;;;2.35;1.60;;;17.30;99.90;;;;;;4964230;28;20243;-91
2023/08/13 00:56:22;;;;;;;5.55;2.30;;;17.30;99.90;;;;;;4981716;28;20183;-92
2023/08/13 00:58:50;;;;;;;3.85;2.22;;;17.30;99.90;;;;;;4981332;28;20185;-91
2023/08/13 01:01:15;;;;;;;5.15;2.20;;;17.20;99.90;;;;;;4981340;28;20204;-91
2023/08/13 01:03:41;;;;;;;3.05;1.95;;;17.20;99.90;;;;;;4998620;28;20176;-91
2023/08/13 01:06:27;;;;;;;4.25;1.90;;;17.10;99.90;;;;;;4981191;28;20622;-91
2023/08/13 01:08:55;;;;;;;3.60;2.00;;;17.10;99.90;;;;;;4981142;28;20259;-91
2023/08/13 01:11:47;;;;;;;2.70;2.08;;;17.20;99.90;;;;;;4981140;28;20188;-90
2023/08/13 01:14:32;;;;;;;3.70;2.03;;;17.10;99.90;;;;;;4981082;28;20172;-91
2023/08/13 01:17:00;;;;;;;3.20;2.10;;;17.10;99.90;;;;;;4981398;28;20187;-91
2023/08/13 01:19:26;;;;;;;7.50;1.92;;;17.10;99.90;;;;;;4980856;28;20180;-92
2023/08/13 01:21:51;;;;;;;4.32;2.28;;;17.10;99.90;;;;;;4981051;28;20208;-91
2023/08/13 01:24:31;;;;;;;2.55;2.00;;;17.10;99.90;;;;;;4981121;28;20232;-92
2023/08/13 01:27:17;;;;;;;6.00;1.98;;;17.20;99.90;;;;;;4998388;28;20186;-92
2023/08/13 01:29:54;;;;;;;4.82;2.13;;;17.10;99.90;;;;;;4980773;28;20179;-92
2023/08/13 01:32:29;;;;;;;5.88;2.00;;;17.00;99.90;;;;;;4980885;28;20172;-91
2023/08/13 01:35:02;;;;;;;2.60;1.88;;;16.90;99.90;;;;;;4980796;28;20180;-92
2023/08/13 01:37:29;;;;;;;7.15;2.10;;;16.90;99.90;;;;;;4979937;28;20663;-92
2023/08/13 01:39:55;;;;;;;4.03;2.10;;;16.90;99.90;;;;;;4980637;28;20266;-92
2023/08/13 01:42:21;;;;;;;2.90;2.05;;;16.90;99.90;;;;;;4980643;28;20275;-91
2023/08/13 01:44:49;;;;;;;5.70;1.90;;;16.90;99.90;;;;;;4980746;28;20208;-92
2023/08/13 01:47:15;;;;;;;5.35;2.22;;;16.80;99.90;;;;;;4980835;28;20176;-92
2023/08/13 01:49:41;;;;;;;3.33;1.95;;;16.90;99.90;;;;;;4980663;28;20179;-92
2023/08/13 01:52:06;;;;;;;4.75;2.00;;;16.80;99.90;;;;;;4981002;28;20625;-92
2023/08/13 01:54:34;;;;;;;3.22;2.00;;;16.70;99.90;;;;;;4996162;28;20248;-91
2023/08/13 01:57:00;;;;;;;3.20;2.33;;;16.70;99.90;;;;;;5000084;28;20262;-92
2023/08/13 01:59:25;;;;;;;7.43;2.03;;;16.70;99.90;;;;;;5017219;28;20207;-91
2023/08/13 02:01:51;;;;;;;9.57;2.20;;;16.60;99.90;;;;;;4999732;28;20221;-91
2023/08/13 02:04:17;;;;;;;4.03;2.00;;;16.60;99.90;;;;;;4999895;28;20183;-92
2023/08/13 02:06:49;;;;;;;5.95;2.50;;;16.60;99.90;;;;;;4999739;28;20229;-92
2023/08/13 02:09:14;;;;;;;5.32;2.25;;;16.60;99.90;;;;;;4999389;28;20226;-91
2023/08/13 02:11:40;;;;;;;5.53;2.20;;;16.70;99.90;;;;;;5017087;28;20222;-91
2023/08/13 02:14:06;;;;;;;17.50;2.45;;;16.70;99.90;;;;;;4999624;28;20183;-92
2023/08/13 02:16:32;;;;;;;5.50;2.20;;;16.70;99.90;;;;;;5017022;28;20241;-93
2023/08/13 02:18:57;;;;;;;7.13;2.25;;;16.70;99.90;;;;;;4999466;28;20175;-92
2023/08/13 02:21:23;;;;;;;5.70;2.35;;;16.80;99.90;;;;;;4999229;28;20245;-92
2023/08/13 02:23:49;;;;;;;8.77;2.38;;;16.80;99.90;;;;;;4988763;28;20290;-91
2023/08/13 02:26:21;;;;;;;7.90;2.78;;;16.90;99.90;;;;;;4979959;28;20597;-92
2023/08/13 02:28:47;;;;;;;6.63;2.30;;;16.80;99.90;;;;;;4997035;28;20603;-91
2023/08/13 02:31:13;;;;;;;5.05;2.45;;;16.80;99.90;;;;;;4979775;28;20188;-91
2023/08/13 02:33:38;;;;;;;3.35;2.50;;;16.80;99.90;;;;;;4979624;28;20924;-91
2023/08/13 02:36:05;;;;;;;5.30;2.60;;;16.80;99.90;;;;;;4979854;28;20195;-91
2023/08/13 02:38:31;;;;;;;5.25;2.60;;;16.80;99.90;;;;;;4979482;28;20172;-92
2023/08/13 02:40:57;;;;;;;5.63;2.40;;;16.70;99.90;;;;;;4979398;28;20214;-91
2023/08/13 02:43:28;;;;;;;7.05;2.75;;;16.70;99.90;;;;;;4979599;28;20498;-90
2023/08/13 02:45:54;;;;;;;6.88;2.97;;;16.70;99.90;;;;;;4979534;28;20175;-91
2023/08/13 02:48:20;;;;;;;8.68;2.85;;;16.70;99.90;;;;;;4995393;28;20164;-91
2023/08/13 02:50:45;;;;;;;6.35;2.55;;;16.70;99.90;;;;;;4995366;28;20191;-90
2023/08/13 02:53:11;;;;;;;6.72;2.67;;;16.70;99.90;;;;;;5001913;28;20229;-90
2023/08/13 02:55:37;;;;;;;2.88;2.17;;;16.70;99.90;;;;;;5016475;28;20179;-91
2023/08/13 02:58:03;;;;;;;4.82;2.30;;;16.70;99.90;;;;;;4999117;28;20233;-90
2023/08/13 03:00:28;;;;;;;4.10;2.55;;;16.80;99.90;;;;;;4998565;28;20206;-90
2023/08/13 03:02:54;;;;;;;8.23;2.50;;;16.90;99.90;;;;;;4997768;28;20188;-90
2023/08/13 03:05:21;;;;;;;9.68;2.75;;;16.80;99.90;;;;;;4998175;28;20185;-91
2023/08/13 03:07:46;;;;;;;4.18;2.33;;;16.80;99.90;;;;;;4998069;28;20640;-90
2023/08/13 03:10:12;;;;;;;9.27;2.67;;;16.80;99.90;;;;;;4998429;28;20183;-91
2023/08/13 03:12:38;;;;;;;5.93;2.33;;;16.80;99.90;;;;;;4998358;28;20175;-91
2023/08/13 03:15:04;;;;;;;4.30;2.33;;;16.80;99.90;;;;;;4998391;28;20214;-91
2023/08/13 03:17:30;;;;;;;5.05;2.45;;;16.80;99.90;;;;;;4998265;28;20179;-90
2023/08/13 03:19:57;;;;;;;7.43;2.67;;;16.80;99.90;;;;;;4998348;28;20190;-90
2023/08/13 03:22:23;;;;;;;4.57;2.30;;;16.80;99.90;;;;;;4998020;28;20179;-90
2023/08/13 03:24:49;;;;;;;7.10;2.65;;;16.70;99.90;;;;;;4979387;28;20239;-88
2023/08/13 03:27:15;;;;;;;6.07;2.60;;;16.60;99.90;;;;;;4996256;28;20187;-92
2023/08/13 03:29:41;;;;;;;3.83;2.60;;;16.60;99.90;;;;;;4978690;28;20598;-90
2023/08/13 03:32:07;;;;;;;6.28;2.70;;;16.50;99.90;;;;;;4978642;28;20176;-90
2023/08/13 03:34:32;;;;;;;5.97;2.50;;;16.50;99.90;;;;;;4994734;28;20527;-89
2023/08/13 03:36:58;;;;;;;5.00;2.53;;;16.50;99.90;;;;;;4978862;28;20180;-92
2023/08/13 03:39:24;;;;;;;9.95;2.80;;;16.50;99.90;;;;;;4995682;28;20164;-90
2023/08/13 03:41:49;;;;;;;6.07;2.80;;;16.50;99.90;;;;;;4978443;28;20537;-91
2023/08/13 03:44:15;;;;;;;6.05;2.78;;;16.50;99.90;;;;;;4978752;28;20171;-90
2023/08/13 03:46:52;;;;;;;6.90;2.67;;;16.60;99.90;;;;;;4978487;28;20186;-90
2023/08/13 03:49:18;;;;;;;6.60;2.60;;;16.60;99.90;;;;;;4978726;28;20230;-90
2023/08/13 03:51:43;;;;;;;6.93;2.72;;;16.70;99.90;;;;;;4978207;28;20184;-90
2023/08/13 03:54:09;;;;;;;5.90;2.85;;;16.70;99.90;;;;;;4991598;28;20191;-90
2023/08/13 03:56:44;;;;;;;6.38;2.38;;;16.70;99.90;;;;;;4998223;28;20187;-90
2023/08/13 03:59:09;;;;;;;4.70;2.80;;;16.60;99.90;;;;;;5017844;28;20504;-90
2023/08/13 04:01:35;;;;;;;4.00;2.60;;;16.70;99.90;;;;;;5004334;28;20206;-90
2023/08/13 04:04:01;;;;;;;4.07;2.35;;;16.70;99.90;;;;;;5021672;28;20214;-90
2023/08/13 04:06:27;;;;;;;5.55;2.40;;;16.70;99.90;;;;;;5004438;28;20183;-91
2023/08/13 04:08:52;;;;;;;4.45;2.40;;;16.70;99.90;;;;;;5004134;28;20213;-90
2023/08/13 04:11:18;;;;;;;4.03;2.67;;;16.80;99.90;;;;;;5003949;28;20321;-90
2023/08/13 04:13:44;;;;;;;6.90;2.72;;;16.80;99.90;;;;;;5004194;28;20175;-91
2023/08/13 04:16:12;;;;;;;7.40;2.90;;;16.80;99.90;;;;;;5021735;28;20182;-91
2023/08/13 04:18:38;;;;;;;5.97;2.80;;;16.80;99.90;;;;;;5004505;28;20253;-90
2023/08/13 04:21:03;;;;;;;4.07;2.55;;;16.80;99.90;;;;;;5004005;28;20269;-91
2023/08/13 04:23:29;;;;;;;6.10;2.75;;;16.80;99.90;;;;;;5003444;28;20313;-91
2023/08/13 04:25:57;;;;;;;4.43;2.50;;;16.80;99.90;;;;;;5003931;28;20185;-91
2023/08/13 04:28:23;;;;;;;5.22;2.28;;;16.80;99.90;;;;;;5021675;28;20245;-91
2023/08/13 04:30:49;;;;;;;5.13;2.58;;;16.80;99.90;;;;;;5021439;28;20213;-91
2023/08/13 04:33:14;;;;;;;2.70;2.25;;;16.80;99.90;;;;;;5021493;28;20183;-90
2023/08/13 04:35:40;;;;;;;5.40;2.35;;;16.80;99.90;;;;;;5003927;28;20626;-91
2023/08/13 04:38:06;;;;;;;5.03;2.95;;;16.80;99.90;;;;;;5003442;28;20178;-91
2023/08/13 04:40:32;;;;;;;4.25;2.42;;;16.80;99.90;;;;;;5003635;28;20214;-91
2023/08/13 04:42:57;;;;;;;4.72;2.80;;;16.80;99.90;;;;;;5021140;28;20572;-91
2023/08/13 04:45:23;;;;;;;4.68;2.67;;;16.80;99.90;;;;;;5003594;28;20209;-92
2023/08/13 04:47:51;;;;;;;6.22;2.65;;;16.80;99.90;;;;;;4998974;28;20275;-91
2023/08/13 04:50:16;;;;;;;5.10;2.80;;;16.90;99.90;;;;;;4983442;28;20195;-91
2023/08/13 04:52:43;;;;;;;5.40;2.45;;;17.00;99.90;;;;;;4984147;28;20179;-91
2023/08/13 04:55:09;;;;;;;4.35;2.50;;;17.10;99.90;;;;;;4983980;28;20176;-91
2023/08/13 04:57:36;;;;;;;4.82;2.58;;;17.20;99.90;;;;;;4984360;28;20183;-90
2023/08/13 05:00:03;;;;;;;3.80;2.63;;;17.30;99.90;;;;;;4984359;28;20178;-91
2023/08/13 05:02:29;;;;;;;4.72;2.60;;;17.40;99.90;;;;;;4984300;28;20275;-91
2023/08/13 05:04:55;;;;;;;4.93;2.65;;;17.50;99.90;;;;;;4984390;28;20207;-92
2023/08/13 05:07:23;;;;;;;6.78;2.85;;;17.50;99.90;;;;;;4984419;28;20180;-91
2023/08/13 05:09:48;;;;;;;4.28;2.65;;;17.50;99.90;;;;;;4983552;28;20164;-91
2023/08/13 05:12:14;;;;;;;7.68;3.38;;;17.60;99.90;;;;;;4981033;28;20191;-90
2023/08/13 05:14:39;;;;;;;6.85;3.25;;;17.60;99.90;;;;;;4981112;28;20619;-91
2023/08/13 05:17:32;;;;;;;5.43;3.25;;;17.60;99.90;;;;;;4981144;28;20513;-91
2023/08/13 05:19:58;;;;;;;6.22;3.00;;;17.60;99.90;;;;;;4981102;28;20179;-91
2023/08/13 05:22:23;;;;;;;6.00;2.97;;;17.70;99.90;;;;;;4998039;28;20176;-85
2023/08/13 05:24:55;;;;;;;10.38;3.33;;;17.70;99.90;;;;;;4963282;28;20234;-93
2023/08/13 05:27:29;;;;;;;6.53;3.17;;;17.70;99.90;;;;;;4970609;28;20346;-93
2023/08/13 05:29:59;;;;;;;6.35;3.22;;;17.80;99.90;;;;;;4981411;28;20200;-92
2023/08/13 05:32:25;;;;;;;11.15;3.50;;;17.80;99.90;;;;;;4961470;28;20192;-93
2023/08/13 05:34:51;;;;;;;8.13;3.50;;;17.80;99.90;;;;;;4969098;28;20271;-92
2023/08/13 05:37:19;;;;;;;6.32;3.35;;;17.80;99.90;;;;;;4970309;28;20211;-92
2023/08/13 05:39:45;;;;;;;7.07;3.70;;;17.80;99.90;;;;;;4974741;28;20188;-91
2023/08/13 05:42:10;;;;;;;5.85;3.40;;;17.80;99.90;;;;;;4997769;28;20211;-91
2023/08/13 05:44:36;;;;;;;6.78;3.63;;;17.80;99.90;;;;;;4971375;28;20236;-94
2023/08/13 05:47:02;;;;;;;7.65;3.78;;;17.80;99.90;;;;;;4972065;28;20518;-88
2023/08/13 05:49:28;;;;;;;8.48;3.60;;;17.80;99.90;;;;;;4963447;28;20177;-92
2023/08/13 05:51:54;;;;;;;5.70;3.45;;;17.80;99.90;;;;;;4960826;28;20191;-93
2023/08/13 05:54:19;;;;;;;6.75;3.65;;;17.80;99.90;;;;;;4975045;28;20219;-88
2023/08/13 05:56:45;;;;;;;5.45;3.60;;;17.80;99.90;;;;;;4963995;28;20748;-91
2023/08/13 05:59:12;;;;;;;6.97;3.90;;;17.80;99.90;;;;;;4960719;28;20172;-90
2023/08/13 06:01:37;;;;;;;9.80;3.95;;;17.90;99.90;;;;;;4973482;28;20219;-87
2023/08/13 06:04:04;;;;;;;7.38;4.65;;;17.90;99.90;;;;;;4979714;28;20267;-87
2023/08/13 06:06:30;;;;;;;7.78;3.83;;;17.90;99.90;;;;;;4979882;28;20187;-90
2023/08/13 06:08:56;;;;;;;7.03;4.03;;;17.90;99.90;;;;;;4979888;28;20180;-89
2023/08/13 06:11:22;;;;;;;9.13;3.72;;;17.90;99.90;;;;;;4979801;28;20517;-90
2023/08/13 06:13:48;;;;;;;6.43;3.45;;;17.90;99.90;;;;;;4979816;28;20184;-88
2023/08/13 06:16:14;;;;;;;5.00;3.45;;;18.00;99.90;;;;;;4980184;28;20183;-88
2023/08/13 06:18:46;;;;;;;5.60;3.60;;;18.00;99.90;;;;;;4996935;28;20173;-90
2023/08/13 06:21:12;;;;;;;6.30;3.63;;;18.10;99.90;;;;;;4969355;28;20527;-92
2023/08/13 06:23:38;;;;;;;6.13;3.60;;;18.20;99.90;;;;;;4995192;28;20226;-91
2023/08/13 06:26:06;;;;;;;7.57;3.65;;;18.30;99.90;;;;;;4979694;28;20334;-90
2023/08/13 06:28:34;;;;;;;6.13;3.38;;;18.30;99.90;;;;;;4971430;28;20173;-90
2023/08/13 06:31:00;;;;;;;7.90;4.20;;;18.40;99.90;;;;;;4976562;28;20658;-90
2023/08/13 06:33:26;;;;;;;9.52;4.18;;;18.60;99.90;;;;;;4979197;28;20278;-90
2023/08/13 06:35:52;;;;;;;5.72;3.92;;;18.80;99.90;;;;;;4977979;28;20184;-90
2023/08/13 06:38:18;;;;;;;8.15;3.88;;;19.00;99.90;;;;;;4977261;28;20247;-88
2023/08/13 06:40:44;;;;;;;7.03;3.35;;;19.20;99.90;;;;;;4960290;28;20209;-89
2023/08/13 06:43:11;;;;;;;5.38;3.53;;;19.30;99.90;;;;;;4959997;28;20181;-91
2023/08/13 06:45:37;;;;;;;7.00;3.30;;;19.40;99.90;;;;;;4959882;28;20200;-90
2023/08/13 06:48:09;;;;;;;4.57;3.20;;;19.50;99.90;;;;;;4960047;28;20619;-90
2023/08/13 06:50:35;;;;;;;6.68;3.50;;;19.50;99.90;;;;;;4959756;28;20181;-93
2023/08/13 06:53:00;;;;;;;7.15;2.90;;;19.60;99.90;;;;;;4959826;28;20678;-93
2023/08/13 06:55:26;;;;;;;6.68;3.22;;;19.70;99.90;;;;;;4977093;28;20176;-91
2023/08/13 06:57:54;;;;;;;8.38;3.08;;;19.70;99.90;;;;;;4959741;28;20173;-90
2023/08/13 07:00:20;;;;;;;8.98;3.28;;;19.60;99.90;;;;;;4963050;28;20191;-91
2023/08/13 07:02:46;;;;;;;6.10;3.03;;;19.70;99.90;;;;;;4978878;28;20562;-91
2023/08/13 07:05:14;;;;;;;3.97;3.10;;;19.80;99.90;;;;;;4978941;28;20176;-89
2023/08/13 07:07:40;;;;;;;6.00;3.15;;;19.70;99.90;;;;;;4976039;28;20176;-90
2023/08/13 07:10:07;;;;;;;4.80;3.03;;;19.80;99.90;;;;;;4996415;28;20190;-92
2023/08/13 07:12:33;;;;;;;9.05;3.00;;;19.70;99.90;;;;;;4978722;28;20176;-89
2023/08/13 07:14:59;;;;;;;5.10;3.05;;;19.80;99.90;;;;;;4975789;28;20184;-91
2023/08/13 07:17:24;;;;;;;5.93;3.28;;;19.70;99.90;;;;;;4995566;28;20188;-91
2023/08/13 07:19:52;;;;;;;4.55;3.13;;;19.70;99.90;;;;;;4978698;28;20176;-90
2023/08/13 07:22:19;;;;;;;9.13;3.25;;;19.70;99.90;;;;;;4969099;28;20197;-91
2023/08/13 07:24:45;;;;;;;6.70;3.10;;;19.80;99.90;;;;;;4974864;28;20256;-90
2023/08/13 07:27:11;;;;;;;6.18;2.88;;;19.70;99.90;;;;;;4995896;28;20188;-91
2023/08/13 07:29:49;;;;;;;6.40;3.13;;;19.80;99.90;;;;;;4975318;28;20188;-93
2023/08/13 07:32:15;;;;;;;5.05;2.83;;;19.90;99.90;;;;;;4978210;28;20188;-89
2023/08/13 07:34:40;;;;;;;7.88;3.30;;;19.90;99.90;;;;;;4977475;28;20207;-89
2023/08/13 07:37:06;;;;;;;7.18;3.65;;;20.10;99.90;;;;;;4978309;28;20179;-90
2023/08/13 07:39:32;;;;;;;4.40;3.00;;;20.20;99.90;;;;;;4995597;28;20203;-92
2023/08/13 07:41:58;;;;;;;5.35;2.92;;;20.30;99.90;;;;;;4978176;28;20262;-90
2023/08/13 07:44:25;;;;;;;7.05;2.88;;;20.30;99.90;;;;;;4978256;28;20179;-89
2023/08/13 07:46:54;;;;;;;4.40;2.90;;;20.40;99.90;;;;;;4978202;28;20559;-91
2023/08/13 07:49:20;;;;;;;6.30;3.13;;;20.30;99.90;;;;;;4977969;28;20218;-89
2023/08/13 07:51:45;;;;;;;6.50;2.95;;;20.50;99.90;;;;;;4977637;28;20232;-90
2023/08/13 07:54:11;;;;;;;8.68;3.17;;;20.60;99.90;;;;;;4994758;28;20184;-88
2023/08/13 07:56:37;;;;;;;7.03;3.15;;;20.70;99.90;;;;;;4977981;28;20180;-89
2023/08/13 07:59:04;;;;;;;7.43;3.15;;;20.70;99.90;;;;;;4994570;28;20184;-91
2023/08/13 08:01:30;;;;;;;4.85;2.53;;;20.80;99.90;;;;;;4962877;28;20219;-92
2023/08/13 08:03:56;;;;;;;7.95;2.88;;;20.90;99.90;;;;;;4971518;28;20184;-93
2023/08/13 08:06:22;;;;;;;7.63;2.97;;;21.00;99.90;;;;;;4978655;28;20184;-91
2023/08/13 08:08:48;;;;;;;6.40;2.88;;;21.00;99.90;;;;;;4966054;28;20275;-92
2023/08/13 08:11:20;;;;;;;7.95;2.58;;;21.00;99.90;;;;;;4961765;28;20604;-92
2023/08/13 08:13:45;;;;;;;6.47;2.63;;;21.10;99.90;;;;;;4958963;28;20198;-93
2023/08/13 08:16:14;;;;;;;10.65;2.58;;;21.00;99.90;;;;;;4975145;28;20627;-92
2023/08/13 08:18:40;;;;;;;6.35;2.63;;;21.10;99.90;;;;;;4977871;28;20517;-91
2023/08/13 08:21:12;;;;;;;9.25;2.45;;;21.10;99.90;;;;;;4976714;28;20220;-92
2023/08/13 08:23:37;;;;;;;4.68;2.03;;;21.10;99.90;;;;;;4986394;28;20246;-91
2023/08/13 08:26:04;;;;;;;6.07;2.35;;;21.20;99.90;;;;;;4997115;28;20206;-87
2023/08/13 08:28:29;;;;;;;8.50;2.30;;;21.10;99.90;;;;;;4978635;28;20289;-88
2023/08/13 08:30:55;;;;;;;5.93;2.33;;;21.20;99.90;;;;;;4958440;28;20188;-88
2023/08/13 08:33:23;;;;;;;5.95;2.13;;;21.30;99.90;;;;;;4975714;28;20515;-89
2023/08/13 08:35:49;;;;;;;5.75;2.20;;;21.40;99.90;;;;;;4976977;28;20173;-89
2023/08/13 08:38:15;;;;;;;7.43;2.10;;;21.60;99.90;;;;;;4977517;28;20250;-94
2023/08/13 08:40:48;;;;;;;6.85;2.00;;;21.60;99.90;;;;;;4977650;28;20235;-91
2023/08/13 08:43:16;;;;;;;6.28;2.28;;;21.70;99.90;;;;;;4993457;28;20195;-90
2023/08/13 08:45:44;;;;;;;6.45;1.85;;;21.80;99.90;;;;;;4978839;28;20274;-90
2023/08/13 08:48:11;;;;;;;6.90;2.38;;;21.90;99.90;;;;;;4999044;28;20188;-90
2023/08/13 08:50:38;;;;;;;5.85;1.92;;;21.90;99.90;;;;;;4980987;28;20192;-91
2023/08/13 08:53:04;;;;;;;6.65;1.90;;;21.90;99.90;;;;;;4998785;28;20285;-88
2023/08/13 08:55:33;;;;;;;7.00;2.03;;;21.90;99.90;;;;;;4980971;28;20653;-90
2023/08/13 08:57:59;;;;;;;5.35;2.05;;;21.90;99.90;;;;;;4980995;28;20179;-91
2023/08/13 09:00:25;;;;;;;13.02;2.47;;;22.00;99.90;;;;;;4982539;28;22203;-88
2023/08/13 09:02:51;;;;;;;8.75;2.42;;;22.00;99.90;;;;;;5017846;28;20167;-89
2023/08/13 09:05:18;;;;;;;5.72;1.98;;;22.00;99.90;;;;;;5000230;28;20677;-89
2023/08/13 09:07:44;;;;;;;9.90;2.47;;;22.00;99.90;;;;;;5000407;28;20179;-89
2023/08/13 09:10:11;;;;;;;5.35;2.15;;;22.00;99.90;;;;;;5000360;28;20231;-88
2023/08/13 09:12:38;;;;;;;10.00;2.40;;;22.00;99.90;;;;;;5017997;28;20172;-89
2023/08/13 09:15:08;;;;;;;6.75;2.25;;;22.20;99.90;;;;;;5016697;28;20230;-88
2023/08/13 09:17:34;;;;;;;8.10;2.33;;;22.10;99.90;;;;;;4999399;28;20207;-87
2023/08/13 09:20:30;;;;;;;7.72;2.17;;;22.30;99.90;;;;;;4999728;28;20618;-90
2023/08/13 09:22:59;;;;;;;7.22;2.47;;;22.40;99.90;;;;;;4974891;28;20230;-89
2023/08/13 09:25:30;;;;;;;7.18;2.10;;;22.40;99.90;;;;;;4983990;28;20187;-89
2023/08/13 09:27:55;;;;;;;7.53;2.17;;;22.50;99.90;;;;;;4999147;28;20282;-89
2023/08/13 09:30:28;;;;;;;4.40;2.03;;;22.60;99.90;;;;;;5000017;28;20258;-90
2023/08/13 09:32:59;;;;;;;7.95;2.30;;;22.70;99.90;;;;;;4999904;28;20206;-90
2023/08/13 09:35:28;;;;;;;7.55;1.90;;;22.70;99.90;;;;;;5017585;28;20172;-89
2023/08/13 09:37:54;;;;;;;7.65;2.42;;;22.70;99.90;;;;;;4999944;28;20183;-91
2023/08/13 09:40:21;;;;;;;7.13;2.30;;;22.80;99.90;;;;;;5000046;28;20175;-89
2023/08/13 09:42:52;;;;;;;7.85;2.05;;;23.00;99.90;;;;;;4999929;28;20179;-87
2023/08/13 09:45:21;;;;;;;7.60;2.10;;;23.00;99.90;;;;;;4985853;28;20184;-89
2023/08/13 09:47:49;;;;;;;6.28;2.15;;;23.10;99.90;;;;;;4980104;28;20247;-88
2023/08/13 09:50:17;;;;;;;8.35;2.33;;;23.20;99.90;;;;;;4979842;28;20622;-91
2023/08/13 09:52:46;;;;;;;5.28;1.98;;;23.20;99.90;;;;;;4980364;28;20180;-90
2023/08/13 09:55:15;;;;;;;6.15;2.17;;;23.20;99.90;;;;;;4980434;28;20184;-89
2023/08/13 09:57:42;;;;;;;8.98;2.05;;;23.30;99.90;;;;;;4978707;28;20183;-90
2023/08/13 10:00:10;;;;;;;8.38;2.63;;;23.30;99.90;;;;;;4979299;28;20239;-89
2023/08/13 10:02:38;;;;;;;6.80;2.22;;;23.50;99.90;;;;;;4979199;28;20207;-93
2023/08/13 10:05:04;;;;;;;6.55;2.00;;;23.50;99.90;;;;;;4986282;28;20615;-90
2023/08/13 10:07:31;;;;;;;7.35;2.03;;;23.50;99.90;;;;;;4999409;28;20270;-87
2023/08/13 10:10:02;;;;;;;6.45;2.15;;;23.60;99.90;;;;;;4998815;28;20179;-89
2023/08/13 10:12:29;;;;;;;5.15;2.00;;;23.60;99.90;;;;;;4999499;28;20258;-90
2023/08/13 10:14:55;;;;;;;6.80;1.95;;;23.70;99.90;;;;;;4999181;28;20187;-89
2023/08/13 10:17:26;;;;;;;7.85;2.30;;;23.60;99.90;;;;;;5016405;28;20198;-89
2023/08/13 10:19:54;;;;;;;6.82;1.92;;;23.50;99.90;;;;;;4999054;28;20306;-89
2023/08/13 10:22:32;;;;;;;6.22;1.90;;;23.40;99.90;;;;;;4998885;28;20233;-90
2023/08/13 10:24:59;;;;;;;6.82;1.85;;;23.30;99.90;;;;;;4998906;28;20187;-88
2023/08/13 10:27:26;;;;;;;5.53;1.95;;;23.20;99.90;;;;;;4999279;28;20185;-86
2023/08/13 10:30:12;;;;;;;7.95;1.85;;;23.30;99.90;;;;;;4998952;28;20182;-90
2023/08/13 10:32:57;;;;;;;6.10;1.98;;;23.30;99.90;;;;;;4998798;28;20175;-89
2023/08/13 10:35:24;;;;;;;11.70;2.13;;;23.40;99.90;;;;;;5014948;28;20180;-91
2023/08/13 10:37:52;;;;;;;6.55;1.63;;;23.50;99.90;;;;;;4998792;28;20266;-88
2023/08/13 10:40:19;;;;;;;6.47;1.98;;;23.60;99.90;;;;;;4998672;28;20180;-90
2023/08/13 10:42:55;;;;;;;6.43;1.85;;;23.50;99.90;;;;;;4998651;28;20765;-90
2023/08/13 10:45:24;;;;;;;6.07;1.98;;;23.40;99.90;;;;;;5016332;28;20175;-92
2023/08/13 10:47:56;;;;;;;7.60;2.08;;;23.30;99.90;;;;;;4998265;28;20615;-88
2023/08/13 10:50:32;;;;;;;5.70;1.75;;;23.20;99.90;;;;;;4997756;28;20175;-89
2023/08/13 10:53:03;;;;;;;7.78;2.30;;;23.10;99.90;;;;;;4998282;28;20229;-88
2023/08/13 10:55:32;;;;;;;6.43;2.00;;;23.20;99.90;;;;;;4998479;28;20998;-89
2023/08/13 10:57:59;;;;;;;6.28;2.22;;;23.30;99.90;;;;;;5015858;28;20184;-91
2023/08/13 11:00:26;;;;;;;6.68;2.10;;;23.40;99.90;;;;;;5015803;28;20557;-92
2023/08/13 11:02:53;;;;;;;6.28;1.90;;;23.40;99.90;;;;;;4998071;28;20183;-91
2023/08/13 11:05:21;;;;;;;5.03;1.40;;;23.30;99.90;;;;;;4998264;28;20175;-89
2023/08/13 11:07:47;;;;;;;5.55;2.13;;;23.30;99.90;;;;;;4998216;28;20689;-89
2023/08/13 11:10:18;;;;;;;6.28;1.90;;;23.20;99.90;;;;;;4998208;28;20176;-91
2023/08/13 11:12:45;;;;;;;7.15;2.22;;;23.10;99.90;;;;;;4998530;28;20544;-88
2023/08/13 11:15:11;;;;;;;7.18;2.13;;;23.10;99.90;;;;;;4985194;28;20188;-90
2023/08/13 11:17:38;;;;;;;8.05;2.30;;;23.20;99.90;;;;;;4978332;28;20270;-92
2023/08/13 11:20:05;;;;;;;7.05;1.80;;;23.40;99.90;;;;;;4978834;28;20183;-91
2023/08/13 11:22:31;;;;;;;8.23;2.10;;;23.60;99.90;;;;;;4977821;28;20212;-91
2023/08/13 11:24:57;;;;;;;8.20;2.20;;;23.70;99.90;;;;;;4959583;28;20188;-91
2023/08/13 11:27:29;;;;;;;6.80;2.10;;;23.90;99.90;;;;;;4959312;28;20244;-92
2023/08/13 11:29:55;;;;;;;4.63;2.10;;;23.90;99.90;;;;;;4959277;28;20176;-89
2023/08/13 11:32:23;;;;;;;7.57;2.20;;;23.80;99.90;;;;;;4958572;28;20181;-90
2023/08/13 11:34:48;;;;;;;6.05;1.90;;;23.80;99.90;;;;;;4959348;28;20263;-90
2023/08/13 11:37:14;;;;;;;8.57;2.22;;;23.80;99.90;;;;;;4959088;28;20272;-91
2023/08/13 11:39:40;;;;;;;8.82;2.00;;;23.80;99.90;;;;;;4959009;28;20231;-90
2023/08/13 11:42:12;;;;;;;4.75;1.63;;;23.70;99.90;;;;;;4958811;28;20303;-92
2023/08/13 11:44:38;;;;;;;9.35;2.47;;;23.70;99.90;;;;;;4959551;28;20181;-90
2023/08/13 11:47:04;;;;;;;6.60;2.03;;;23.80;99.90;;;;;;4952095;28;20191;-91
2023/08/13 11:49:39;;;;;;;9.40;2.33;;;23.90;99.90;;;;;;4958879;28;20268;-92
2023/08/13 11:52:07;;;;;;;7.43;2.05;;;24.10;99.90;;;;;;4958712;28;20698;-94
2023/08/13 11:54:34;;;;;;;7.20;1.92;;;24.00;99.90;;;;;;4959179;28;20224;-92
2023/08/13 11:57:01;;;;;;;6.45;1.83;;;24.20;99.90;;;;;;4976082;28;20187;-89
2023/08/13 11:59:30;;;;;;;10.57;2.33;;;24.40;99.90;;;;;;4959025;28;20235;-91
2023/08/13 12:01:56;;;;;;;4.35;1.75;;;24.50;99.90;;;;;;4971403;28;20211;-92
2023/08/13 12:04:23;;;;;;;5.35;2.05;;;24.50;99.90;;;;;;4976773;28;20180;-93
2023/08/13 12:06:52;;;;;;;8.23;1.75;;;24.50;99.90;;;;;;4968641;28;20207;-91
2023/08/13 12:09:19;;;;;;;6.90;2.05;;;24.60;99.90;;;;;;4977779;28;20202;-91
2023/08/13 12:11:49;;;;;;;7.32;1.95;;;24.90;99.90;;;;;;4977938;28;20259;-91
2023/08/13 12:14:14;;;;;;;6.07;2.05;;;24.90;99.90;;;;;;4978189;28;20187;-92
2023/08/13 12:16:40;;;;;;;5.95;2.00;;;25.00;99.90;;;;;;4978103;28;20175;-93
2023/08/13 12:19:06;;;;;;;6.22;1.92;;;25.10;99.90;;;;;;4978093;28;20191;-90
2023/08/13 12:21:35;;;;;;;4.85;1.58;;;25.30;99.90;;;;;;4980973;28;20211;-90
2023/08/13 12:24:05;;;;;;;6.38;1.77;;;25.30;99.90;;;;;;4991198;28;20659;-93
2023/08/13 12:26:32;;;;;;;5.97;2.00;;;25.30;99.90;;;;;;4981987;28;20172;-91
2023/08/13 12:28:58;;;;;;;8.45;2.15;;;25.40;99.90;;;;;;4981934;28;20238;-94
2023/08/13 12:31:29;;;;;;;4.30;1.60;;;25.40;99.90;;;;;;4981686;28;20188;-92
2023/08/13 12:33:56;;;;;;;7.57;2.03;;;25.50;99.90;;;;;;4981972;28;20245;-94
2023/08/13 12:36:22;;;;;;;3.95;1.40;;;25.40;99.90;;;;;;4981740;28;20172;-90
2023/08/13 12:38:47;;;;;;;8.85;1.95;;;25.50;99.90;;;;;;4981504;28;20225;-90
2023/08/13 12:41:16;;;;;;;6.38;2.13;;;25.60;99.90;;;;;;4981513;28;20671;-90
2023/08/13 12:43:42;;;;;;;3.72;1.85;;;25.60;99.90;;;;;;4981666;28;20238;-92
2023/08/13 12:46:08;;;;;;;4.78;1.73;;;25.40;99.90;;;;;;4981596;28;20180;-90
2023/08/13 12:48:36;;;;;;;5.50;1.90;;;25.10;99.90;;;;;;4981474;28;20184;-92